createdAt,value
2022-10-21T00:01:00.770Z,43.80
2022-10-21T00:03:40.078Z,36.80
2022-10-21T00:06:10.864Z,38.40
2022-10-21T00:08:40.498Z,39.40
2022-10-21T00:11:10.514Z,38.70
2022-10-21T00:13:39.980Z,37.40
2022-10-21T00:16:16.318Z,36.50
2022-10-21T00:18:49.422Z,41.90
2022-10-21T00:21:22.307Z,35.60
2022-10-21T00:23:50.291Z,40.20
2022-10-21T00:26:21.913Z,44.70
2022-10-21T00:28:51.736Z,49.30
2022-10-21T00:31:19.346Z,48.70
2022-10-21T00:33:46.989Z,47.90
2022-10-21T00:36:16.232Z,49.90
2022-10-21T00:38:48.547Z,71.00
2022-10-21T00:41:19.408Z,74.60
2022-10-21T00:43:59.186Z,75.00
2022-10-21T00:46:41.371Z,62.80
2022-10-21T00:49:23.276Z,47.00
2022-10-21T00:51:57.448Z,43.00
2022-10-21T00:54:28.298Z,50.40
2022-10-21T00:56:58.474Z,49.20
2022-10-21T00:59:32.329Z,48.20
2022-10-21T01:04:29.581Z,82.10
2022-10-21T01:07:00.559Z,70.40
2022-10-21T01:09:30.455Z,71.80
2022-10-21T01:12:02.908Z,67.00
2022-10-21T01:14:55.933Z,73.60
2022-10-21T01:17:51.453Z,61.50
2022-10-21T01:20:30.485Z,62.60
2022-10-21T01:23:35.615Z,63.50
2022-10-21T01:26:25.392Z,63.60
2022-10-21T01:29:18.716Z,54.30
2022-10-21T01:32:06.858Z,57.50
2022-10-21T01:35:03.926Z,61.50
2022-10-21T01:37:57.838Z,52.80
2022-10-21T01:40:55.818Z,56.40
2022-10-21T01:43:29.674Z,47.50
2022-10-21T01:46:27.136Z,44.20
2022-10-21T01:49:11.912Z,45.20
2022-10-21T01:51:40.729Z,58.90
2022-10-21T01:54:17.074Z,55.30
2022-10-21T01:56:49.166Z,61.30
2022-10-21T01:59:20.945Z,63.10
2022-10-21T02:01:52.476Z,64.80
2022-10-21T02:04:24.644Z,59.70
2022-10-21T02:06:52.325Z,60.20
2022-10-21T02:09:20.714Z,63.20
2022-10-21T02:11:54.937Z,64.10
2022-10-21T02:14:33.032Z,68.80
2022-10-21T02:17:01.966Z,63.60
2022-10-21T02:22:10.573Z,62.60
2022-10-21T02:24:57.130Z,60.90
2022-10-21T02:27:24.925Z,60.30
2022-10-21T02:29:59.410Z,66.00
2022-10-21T02:32:33.217Z,71.50
2022-10-21T02:38:15.654Z,66.70
2022-10-21T02:41:05.349Z,69.90
2022-10-21T02:43:47.974Z,73.40
2022-10-21T02:46:15.977Z,76.00
2022-10-21T02:48:48.594Z,72.40
2022-10-21T02:51:17.715Z,76.20
2022-10-21T02:53:46.571Z,69.50
2022-10-21T02:56:15.483Z,76.10
2022-10-21T02:58:43.319Z,70.60
2022-10-21T03:01:11.114Z,69.50
2022-10-21T03:03:38.800Z,71.70
2022-10-21T03:06:08.463Z,69.00
2022-10-21T03:08:36.523Z,64.40
2022-10-21T03:11:05.463Z,67.60
2022-10-21T03:13:34.336Z,74.70
2022-10-21T03:16:02.031Z,72.20
2022-10-21T03:18:29.722Z,75.40
2022-10-21T03:20:57.531Z,76.90
2022-10-21T03:23:25.222Z,68.20
2022-10-21T03:25:52.972Z,72.60
2022-10-21T03:28:20.688Z,74.20
2022-10-21T03:30:49.640Z,68.70
2022-10-21T03:33:18.491Z,74.00
2022-10-21T03:35:46.284Z,67.00
2022-10-21T03:38:15.050Z,71.70
2022-10-21T03:40:42.923Z,69.60
2022-10-21T03:43:10.648Z,67.30
2022-10-21T03:45:38.439Z,70.60
2022-10-21T03:48:06.201Z,69.40
2022-10-21T03:50:34.039Z,66.10
2022-10-21T03:53:09.962Z,64.50
2022-10-21T03:55:42.498Z,63.20
2022-10-21T03:58:10.207Z,63.20
2022-10-21T04:00:38.233Z,62.00
2022-10-21T04:03:05.878Z,60.00
2022-10-21T04:05:33.799Z,60.10
2022-10-21T04:08:02.731Z,61.70
2022-10-21T04:10:30.440Z,58.20
2022-10-21T04:12:58.255Z,58.60
2022-10-21T04:15:29.002Z,60.90
2022-10-21T04:17:56.964Z,62.40
2022-10-21T04:20:24.716Z,60.00
2022-10-21T04:22:53.626Z,61.10
2022-10-21T04:25:21.518Z,64.90
2022-10-21T04:27:49.420Z,59.50
2022-10-21T04:30:17.421Z,57.50
2022-10-21T04:32:45.193Z,59.30
2022-10-21T04:35:15.501Z,58.40
2022-10-21T04:37:44.435Z,59.80
2022-10-21T04:40:12.157Z,59.80
2022-10-21T04:42:41.379Z,54.00
2022-10-21T04:45:11.576Z,59.00
2022-10-21T04:47:39.418Z,55.20
2022-10-21T04:50:10.794Z,58.80
2022-10-21T04:52:40.980Z,58.80
2022-10-21T04:55:09.245Z,63.50
2022-10-21T04:57:36.957Z,66.60
2022-10-21T05:00:07.738Z,62.50
2022-10-21T05:02:35.600Z,55.40
2022-10-21T05:05:04.702Z,58.90
2022-10-21T05:07:32.414Z,60.60
2022-10-21T05:10:00.067Z,63.90
2022-10-21T05:12:27.814Z,62.90
2022-10-21T05:14:55.615Z,58.80
2022-10-21T05:17:25.138Z,62.60
2022-10-21T05:19:52.858Z,59.00
2022-10-21T05:22:20.631Z,66.10
2022-10-21T05:24:50.695Z,55.70
2022-10-21T05:27:19.969Z,60.30
2022-10-21T05:29:47.678Z,65.60
2022-10-21T05:32:17.668Z,56.40
2022-10-21T05:34:45.412Z,55.70
2022-10-21T05:37:13.363Z,61.20
2022-10-21T05:39:43.122Z,58.90
2022-10-21T05:42:10.834Z,57.10
2022-10-21T05:44:38.672Z,63.00
2022-10-21T05:47:06.469Z,56.30
2022-10-21T05:49:34.198Z,58.70
2022-10-21T05:52:03.402Z,52.20
2022-10-21T05:54:31.291Z,51.90
2022-10-21T05:56:58.941Z,53.70
2022-10-21T05:59:28.546Z,57.40
2022-10-21T06:01:56.303Z,52.50
2022-10-21T06:04:26.400Z,50.70
2022-10-21T06:06:58.992Z,54.50
2022-10-21T06:09:26.740Z,52.10
2022-10-21T06:11:58.735Z,48.00
2022-10-21T06:14:27.809Z,51.30
2022-10-21T06:16:57.809Z,52.40
2022-10-21T06:19:25.449Z,56.50
2022-10-21T06:21:55.204Z,61.00
2022-10-21T06:24:23.019Z,63.90
2022-10-21T06:26:51.880Z,62.80
2022-10-21T06:29:19.617Z,62.70
2022-10-21T06:31:47.318Z,58.40
2022-10-21T06:36:46.557Z,61.40
2022-10-21T06:39:14.303Z,60.00
2022-10-21T06:41:42.044Z,63.90
2022-10-21T06:44:09.730Z,60.80
2022-10-21T06:46:39.511Z,66.30
2022-10-21T06:49:07.249Z,65.80
2022-10-21T06:51:34.992Z,65.80
2022-10-21T06:54:02.688Z,60.20
2022-10-21T06:56:32.893Z,58.20
2022-10-21T06:59:02.766Z,52.90
2022-10-21T07:01:48.497Z,49.40
2022-10-21T07:04:25.332Z,50.70
2022-10-21T07:06:54.414Z,54.50
2022-10-21T07:09:22.209Z,49.10
2022-10-21T07:11:49.993Z,53.40
2022-10-21T07:14:17.671Z,49.50
2022-10-21T07:16:45.438Z,50.10
2022-10-21T07:19:16.497Z,46.40
2022-10-21T07:21:45.541Z,45.00
2022-10-21T07:24:13.249Z,41.60
2022-10-21T07:26:42.268Z,43.80
2022-10-21T07:29:10.240Z,40.10
2022-10-21T07:31:39.634Z,38.60
2022-10-21T07:34:12.371Z,45.10
2022-10-21T07:36:48.912Z,32.80
2022-10-21T07:39:22.482Z,42.40
2022-10-21T07:41:57.835Z,41.10
2022-10-21T07:44:26.711Z,42.80
2022-10-21T07:46:54.836Z,37.90
2022-10-21T07:49:24.508Z,38.50
2022-10-21T07:51:53.315Z,39.70
2022-10-21T07:54:22.263Z,38.70
2022-10-21T07:56:53.035Z,34.00
2022-10-21T07:59:22.257Z,33.30
2022-10-21T08:01:54.080Z,29.80
2022-10-21T08:04:25.976Z,28.70
2022-10-21T08:06:53.671Z,24.90
2022-10-21T08:09:23.196Z,26.60
2022-10-21T08:11:50.879Z,21.00
2022-10-21T08:14:18.655Z,14.90
2022-10-21T08:16:46.454Z,16.40
2022-10-21T08:19:19.755Z,16.10
2022-10-21T08:21:47.638Z,19.30
2022-10-21T08:24:15.634Z,12.40
2022-10-21T08:26:45.985Z,15.10
2022-10-21T08:29:13.637Z,12.40
2022-10-21T08:31:41.441Z,11.40
2022-10-21T08:34:10.790Z,9.10
2022-10-21T08:36:39.662Z,11.10
2022-10-21T08:39:07.908Z,9.60
2022-10-21T08:42:14.635Z,9.80
2022-10-21T08:44:59.811Z,10.40
2022-10-21T08:47:46.030Z,9.80
2022-10-21T08:50:25.852Z,10.60
2022-10-21T08:53:21.319Z,10.20
2022-10-21T08:55:56.054Z,8.00
2022-10-21T08:58:25.562Z,10.80
2022-10-21T09:01:23.499Z,7.80
2022-10-21T09:04:11.269Z,10.80
2022-10-21T09:07:09.919Z,7.00
2022-10-21T09:09:54.412Z,10.30
2022-10-21T09:12:44.928Z,10.90
2022-10-21T09:15:30.992Z,5.70
2022-10-21T09:18:07.771Z,7.40
2022-10-21T09:20:56.020Z,8.80
2022-10-21T09:23:37.529Z,7.60
2022-10-21T09:26:31.409Z,8.40
2022-10-21T09:31:33.635Z,7.40
2022-10-21T09:34:09.707Z,7.40
2022-10-21T09:36:48.066Z,11.10
2022-10-21T09:39:38.855Z,7.20
2022-10-21T09:42:12.422Z,7.10
2022-10-21T09:44:52.697Z,7.00
2022-10-21T09:47:24.667Z,8.80
2022-10-21T09:50:07.674Z,8.50
2022-10-21T09:52:38.985Z,8.20
2022-10-21T09:55:14.170Z,7.30
2022-10-21T09:57:55.218Z,8.00
2022-10-21T10:00:39.893Z,9.10
2022-10-21T10:03:09.962Z,6.10
2022-10-21T10:05:48.356Z,8.40
2022-10-21T10:08:43.421Z,8.00
2022-10-21T10:11:17.153Z,6.30
2022-10-21T10:13:51.977Z,5.40
2022-10-21T10:16:22.909Z,8.90
2022-10-21T10:18:54.311Z,7.70
2022-10-21T10:21:22.842Z,4.40
2022-10-21T10:23:54.911Z,4.50
2022-10-21T10:26:31.156Z,4.60
2022-10-21T10:29:18.698Z,8.20
2022-10-21T10:31:58.006Z,7.80
2022-10-21T10:34:40.849Z,8.00
2022-10-21T10:37:18.842Z,8.30
2022-10-21T10:39:52.371Z,6.30
2022-10-21T10:42:24.319Z,9.10
2022-10-21T10:44:56.224Z,7.60
2022-10-21T10:47:31.558Z,7.50
2022-10-21T10:49:59.564Z,10.30
2022-10-21T10:52:27.339Z,8.50
2022-10-21T10:55:16.366Z,5.80
2022-10-21T10:57:59.118Z,3.80
2022-10-21T11:00:45.922Z,5.90
2022-10-21T11:03:29.062Z,5.70
2022-10-21T11:06:08.902Z,4.20
2022-10-21T11:08:46.802Z,5.30
2022-10-21T11:11:36.523Z,8.50
2022-10-21T11:14:16.437Z,10.10
2022-10-21T11:17:13.815Z,5.00
2022-10-21T11:19:58.719Z,7.20
2022-10-21T11:22:48.080Z,5.40
2022-10-21T11:25:36.882Z,10.10
2022-10-21T11:28:21.729Z,6.70
2022-10-21T11:31:14.623Z,9.20
2022-10-21T11:34:13.948Z,8.30
2022-10-21T11:37:21.371Z,9.00
2022-10-21T11:40:17.658Z,6.10
2022-10-21T11:42:54.280Z,8.50
2022-10-21T11:45:37.014Z,5.80
2022-10-21T11:48:14.496Z,9.00
2022-10-21T11:51:16.677Z,6.30
2022-10-21T11:54:16.702Z,7.20
2022-10-21T11:57:18.075Z,8.70
2022-10-21T12:00:18.875Z,10.40
2022-10-21T12:03:18.332Z,11.50
2022-10-21T12:06:01.859Z,6.70
2022-10-21T12:11:33.002Z,6.70
2022-10-21T12:14:19.765Z,7.80
2022-10-21T12:16:50.262Z,5.80
2022-10-21T12:19:19.206Z,4.30
2022-10-21T12:21:47.158Z,6.80
2022-10-21T12:24:34.350Z,9.60
2022-10-21T12:27:26.272Z,8.80
2022-10-21T12:30:33.425Z,7.40
2022-10-21T12:33:22.866Z,6.60
2022-10-21T12:35:57.331Z,5.90
2022-10-21T12:38:48.790Z,6.50
2022-10-21T12:41:24.813Z,9.00
2022-10-21T12:44:21.492Z,8.60
2022-10-21T12:46:55.097Z,8.60
2022-10-21T12:49:25.656Z,7.00
2022-10-21T12:52:03.206Z,8.10
2022-10-21T12:54:42.981Z,9.80
2022-10-21T12:57:24.395Z,19.00
2022-10-21T13:00:27.408Z,20.50
2022-10-21T13:03:03.258Z,12.80
2022-10-21T13:05:36.946Z,9.30
2022-10-21T13:08:20.354Z,15.30
2022-10-21T13:11:06.509Z,12.60
2022-10-21T13:13:46.059Z,9.80
2022-10-21T13:16:19.729Z,8.00
2022-10-21T13:18:59.053Z,7.70
2022-10-21T13:21:29.793Z,10.10
2022-10-21T13:24:16.703Z,16.10
2022-10-21T13:27:00.704Z,10.80
2022-10-21T13:29:37.881Z,14.10
2022-10-21T13:32:33.571Z,17.30
2022-10-21T13:35:20.256Z,19.20
2022-10-21T13:38:18.784Z,13.00
2022-10-21T13:40:50.117Z,11.40
2022-10-21T13:43:29.139Z,9.60
2022-10-21T13:46:05.434Z,9.70
2022-10-21T13:48:40.115Z,11.00
2022-10-21T13:51:21.481Z,7.50
2022-10-21T13:53:54.768Z,9.90
2022-10-21T13:56:32.095Z,14.00
2022-10-21T13:59:01.190Z,11.50
2022-10-21T14:01:43.809Z,13.40
2022-10-21T14:04:20.811Z,12.00
2022-10-21T14:06:53.496Z,15.40
2022-10-21T14:09:27.386Z,14.90
2022-10-21T14:12:06.618Z,16.20
2022-10-21T14:14:40.224Z,13.20
2022-10-21T14:17:23.585Z,13.90
2022-10-21T14:19:55.958Z,10.80
2022-10-21T14:22:29.172Z,10.30
2022-10-21T14:27:35.002Z,9.10
2022-10-21T14:30:07.454Z,10.70
2022-10-21T14:32:38.058Z,9.60
2022-10-21T14:35:10.201Z,12.30
2022-10-21T14:37:49.098Z,12.50
2022-10-21T14:40:32.883Z,14.00
2022-10-21T14:43:19.716Z,11.10
2022-10-21T14:45:52.701Z,14.50
2022-10-21T14:48:29.801Z,13.80
2022-10-21T14:51:06.609Z,14.50
2022-10-21T14:53:46.575Z,9.50
2022-10-21T14:56:41.089Z,10.90
2022-10-21T14:59:31.753Z,10.50
2022-10-21T15:02:01.789Z,11.80
2022-10-21T15:04:53.595Z,15.30
2022-10-21T15:07:33.217Z,17.60
2022-10-21T15:10:05.327Z,13.80
2022-10-21T15:12:39.262Z,12.10
2022-10-21T15:15:49.743Z,13.70
2022-10-21T15:18:30.222Z,13.80
2022-10-21T15:21:13.874Z,13.30
2022-10-21T15:24:02.112Z,15.00
2022-10-21T15:26:38.258Z,16.90
2022-10-21T15:29:20.379Z,12.90
2022-10-21T15:31:48.518Z,13.90
2022-10-21T15:34:20.111Z,15.30
2022-10-21T15:36:48.157Z,15.50
2022-10-21T15:39:15.777Z,17.10
2022-10-21T15:41:48.417Z,14.50
2022-10-21T15:44:28.447Z,17.30
2022-10-21T15:47:01.232Z,13.70
2022-10-21T15:49:35.189Z,15.00
2022-10-21T15:52:02.922Z,12.40
2022-10-21T15:54:31.218Z,15.90
2022-10-21T15:57:01.014Z,12.80
2022-10-21T15:59:31.359Z,15.20
2022-10-21T16:02:00.309Z,16.50
2022-10-21T16:04:28.252Z,14.10
2022-10-21T16:06:56.376Z,16.90
2022-10-21T16:09:28.011Z,18.20
2022-10-21T16:12:00.961Z,15.60
2022-10-21T16:14:30.760Z,17.70
2022-10-21T16:16:59.607Z,19.20
2022-10-21T16:19:28.785Z,18.60
2022-10-21T16:21:56.730Z,18.50
2022-10-21T16:24:24.586Z,18.90
2022-10-21T16:26:52.395Z,18.20
2022-10-21T16:29:25.471Z,19.40
2022-10-21T16:31:53.768Z,17.10
2022-10-21T16:34:22.771Z,18.30
2022-10-21T16:36:50.443Z,20.20
2022-10-21T16:39:24.321Z,17.60
2022-10-21T16:41:52.259Z,18.40
2022-10-21T16:44:19.914Z,19.80
2022-10-21T16:46:54.511Z,18.50
2022-10-21T16:49:27.285Z,18.70
2022-10-21T16:51:55.318Z,19.20
2022-10-21T16:54:23.811Z,19.60
2022-10-21T16:56:54.828Z,17.80
2022-10-21T16:59:23.786Z,18.20
2022-10-21T17:01:52.372Z,15.20
2022-10-21T17:04:20.115Z,16.50
2022-10-21T17:06:48.414Z,17.90
2022-10-21T17:09:16.526Z,17.50
2022-10-21T17:11:44.258Z,17.30
2022-10-21T17:14:17.594Z,16.20
2022-10-21T17:16:45.662Z,15.60
2022-10-21T17:19:14.757Z,13.30
2022-10-21T17:21:42.976Z,18.50
2022-10-21T17:24:15.204Z,16.10
2022-10-21T17:26:43.823Z,15.50
2022-10-21T17:29:12.750Z,15.00
2022-10-21T17:31:43.050Z,14.70
2022-10-21T17:34:27.494Z,13.00
2022-10-21T17:36:55.369Z,13.30
2022-10-21T17:39:24.411Z,17.40
2022-10-21T17:41:52.167Z,16.00
2022-10-21T17:44:20.981Z,13.50
2022-10-21T17:46:54.265Z,14.40
2022-10-21T17:49:24.321Z,16.30
2022-10-21T17:51:52.908Z,14.80
2022-10-21T17:54:26.042Z,14.80
2022-10-21T17:56:58.364Z,14.50
2022-10-21T17:59:27.548Z,15.90
2022-10-21T18:01:55.245Z,15.60
2022-10-21T18:04:22.954Z,17.40
2022-10-21T18:06:50.616Z,18.10
2022-10-21T18:09:18.469Z,13.70
2022-10-21T18:11:49.657Z,19.50
2022-10-21T18:14:18.413Z,14.30
2022-10-21T18:16:46.070Z,17.20
2022-10-21T18:19:14.032Z,14.80
2022-10-21T18:21:41.675Z,18.80
2022-10-21T18:24:12.409Z,16.90
2022-10-21T18:26:41.374Z,14.00
2022-10-21T18:29:09.139Z,19.00
2022-10-21T18:31:38.524Z,21.00
2022-10-21T18:34:12.010Z,16.70
2022-10-21T18:36:41.634Z,18.10
2022-10-21T18:39:12.606Z,14.80
2022-10-21T18:41:41.050Z,14.40
2022-10-21T18:44:12.913Z,17.90
2022-10-21T18:46:43.538Z,12.70
2022-10-21T18:49:15.698Z,14.70
2022-10-21T18:51:43.433Z,18.90
2022-10-21T18:54:11.277Z,13.30
2022-10-21T18:56:42.011Z,17.40
2022-10-21T18:59:10.899Z,13.80
2022-10-21T19:01:42.132Z,14.60
2022-10-21T19:04:10.816Z,11.90
2022-10-21T19:06:46.489Z,12.30
2022-10-21T19:09:22.188Z,15.00
2022-10-21T19:11:50.178Z,14.70
2022-10-21T19:14:19.890Z,15.80
2022-10-21T19:16:49.206Z,17.90
2022-10-21T19:19:17.815Z,12.60
2022-10-21T19:21:47.009Z,13.30
2022-10-21T19:24:15.170Z,16.20
2022-10-21T19:26:47.309Z,14.80
2022-10-21T19:29:19.938Z,16.60
2022-10-21T19:31:51.542Z,12.20
2022-10-21T19:34:29.043Z,12.60
2022-10-21T19:36:56.908Z,12.00
2022-10-21T19:39:29.253Z,13.90
2022-10-21T19:42:03.318Z,13.40
2022-10-21T19:44:31.803Z,13.40
2022-10-21T19:47:00.108Z,16.30
2022-10-21T19:49:27.944Z,11.60
2022-10-21T19:51:55.926Z,14.40
2022-10-21T19:54:24.152Z,14.50
2022-10-21T19:56:52.825Z,15.10
2022-10-21T19:59:20.661Z,12.80
2022-10-21T20:01:49.048Z,10.80
2022-10-21T20:04:19.269Z,15.30
2022-10-21T20:06:50.097Z,11.30
2022-10-21T20:09:17.994Z,16.50
2022-10-21T20:11:45.942Z,13.40
2022-10-21T20:14:17.795Z,13.50
2022-10-21T20:16:53.654Z,13.90
2022-10-21T20:19:21.568Z,13.80
2022-10-21T20:21:49.872Z,14.90
2022-10-21T20:24:17.747Z,13.80
2022-10-21T20:26:50.236Z,16.90
2022-10-21T20:29:19.054Z,13.10
2022-10-21T20:31:46.922Z,13.80
2022-10-21T20:34:14.790Z,10.50
2022-10-21T20:36:45.729Z,14.10
2022-10-21T20:39:16.398Z,13.80
2022-10-21T20:41:44.953Z,13.50
2022-10-21T20:44:18.707Z,14.50
2022-10-21T20:46:46.703Z,11.80
2022-10-21T20:49:17.435Z,16.00
2022-10-21T20:51:45.612Z,13.20
2022-10-21T20:54:16.973Z,12.70
2022-10-21T20:56:47.713Z,15.90
2022-10-21T20:59:19.211Z,11.20
2022-10-21T21:01:51.168Z,19.10
2022-10-21T21:04:23.785Z,16.40
2022-10-21T21:06:54.072Z,12.50
2022-10-21T21:12:11.493Z,8.80
2022-10-21T21:14:42.760Z,21.30
2022-10-21T21:17:10.445Z,16.80
2022-10-21T21:19:41.577Z,15.20
2022-10-21T21:22:09.408Z,12.40
2022-10-21T21:24:39.940Z,10.90
2022-10-21T21:27:07.701Z,13.10
2022-10-21T21:29:38.826Z,14.80
2022-10-21T21:32:06.522Z,13.60
2022-10-21T21:34:34.225Z,16.20
2022-10-21T21:37:01.963Z,16.20
2022-10-21T21:39:29.820Z,16.30
2022-10-21T21:41:58.161Z,16.40
2022-10-21T21:44:28.161Z,17.60
2022-10-21T21:46:55.930Z,14.80
2022-10-21T21:49:23.880Z,12.70
2022-10-21T21:51:57.417Z,16.70
2022-10-21T21:54:25.756Z,11.60
2022-10-21T21:57:00.645Z,15.90
2022-10-21T21:59:41.440Z,16.50
2022-10-21T22:02:10.193Z,13.50
2022-10-21T22:04:39.674Z,14.50
2022-10-21T22:07:07.888Z,14.00
2022-10-21T22:09:37.630Z,15.50
2022-10-21T22:12:05.615Z,14.40
2022-10-21T22:14:33.296Z,13.80
2022-10-21T22:17:01.367Z,16.50
2022-10-21T22:19:29.041Z,11.80
2022-10-21T22:21:58.071Z,13.00
2022-10-21T22:24:25.825Z,14.90
2022-10-21T22:26:53.551Z,12.60
2022-10-21T22:29:22.687Z,12.70
2022-10-21T22:31:50.336Z,12.00
2022-10-21T22:34:20.701Z,13.90
2022-10-21T22:36:48.367Z,11.70
2022-10-21T22:39:16.004Z,10.40
2022-10-21T22:41:43.700Z,16.50
2022-10-21T22:44:15.393Z,15.30
2022-10-21T22:46:43.169Z,16.50
2022-10-21T22:49:10.792Z,12.80
2022-10-21T22:51:38.504Z,14.00
2022-10-21T22:54:19.122Z,14.50
2022-10-21T22:56:48.265Z,12.50
2022-10-21T22:59:16.040Z,13.80
2022-10-21T23:01:43.835Z,10.70
2022-10-21T23:04:11.509Z,10.80
2022-10-21T23:06:39.220Z,13.80
2022-10-21T23:09:09.534Z,14.10
2022-10-21T23:11:37.502Z,12.70
2022-10-21T23:14:08.917Z,16.10
2022-10-21T23:16:38.623Z,15.00
2022-10-21T23:19:08.924Z,13.70
2022-10-21T23:21:42.415Z,11.20
2022-10-21T23:24:14.365Z,11.80
2022-10-21T23:26:42.498Z,12.80
2022-10-21T23:29:10.257Z,12.80
2022-10-21T23:31:37.997Z,17.10
2022-10-21T23:34:06.130Z,13.00
2022-10-21T23:36:36.787Z,15.60
2022-10-21T23:39:05.350Z,12.70
2022-10-21T23:41:33.065Z,13.60
2022-10-21T23:44:00.823Z,14.40
2022-10-21T23:46:32.262Z,13.60
2022-10-21T23:48:59.942Z,16.60
2022-10-21T23:51:30.365Z,15.00
2022-10-21T23:53:57.996Z,16.20
2022-10-21T23:56:25.736Z,10.70
2022-10-21T23:59:01.227Z,11.50
